Natoma, Kansas
Current Conditions -  °F | °C
As of 6:53 AM on Wednesday 22 Oct 2014 (Local Time) from KRSL Reporting Station
Clear Clear  
Wind Chill: 56°   Ceiling: Unl
Heat Index: 56°   Visibility: 10mi
Dew Point: 52°   Wind: 9mph
Humidity: 87%   Direction: 170°S
Pressure: 30.02"   Gusts: NA
Location:  39.19°N, 99.03°W
Report Text: KRSL 221153Z AUTO 17008KT 10SM CLR 13/11 A3002 RMK AO2 SLP158 T01330111 10167 20133 53007
Loading
Personal Weather Stations






























Interactive Weather Map
Tropical Storm Tracking
New forecast layout! Learn more

10-Day Weather Forecast

Advertisements
Track Severe Weather on mobile